createdAt,value
2017-03-14T00:01:04.888Z,67.09
2017-03-14T00:02:15.654Z,67.09
2017-03-14T00:03:26.017Z,67
2017-03-14T00:04:36.373Z,67.28
2017-03-14T00:05:47.138Z,67
2017-03-14T00:06:57.513Z,67.09
2017-03-14T00:08:07.877Z,67.28
2017-03-14T00:09:18.650Z,67.28
2017-03-14T00:10:29.416Z,67.28
2017-03-14T00:11:39.776Z,67.28
2017-03-14T00:12:50.782Z,67
2017-03-14T00:14:01.586Z,66.9
2017-03-14T00:15:12.385Z,67.47
2017-03-14T00:16:23.151Z,67.19
2017-03-14T00:17:33.932Z,67.28
2017-03-14T00:18:43.925Z,67.09
2017-03-14T00:19:54.706Z,67.09
2017-03-14T00:21:05.471Z,67.19
2017-03-14T00:22:15.838Z,67
2017-03-14T00:23:26.637Z,67.28
2017-03-14T00:24:37.461Z,67.09
2017-03-14T00:25:48.229Z,67.09
2017-03-14T00:26:58.596Z,67.19
2017-03-14T00:28:09.393Z,67.19
2017-03-14T00:29:20.149Z,67.09
2017-03-14T00:30:30.969Z,67.19
2017-03-14T00:31:41.741Z,67.19
2017-03-14T00:32:52.486Z,67.09
2017-03-14T00:34:03.281Z,67.28
2017-03-14T00:35:14.015Z,67
2017-03-14T00:36:24.381Z,67.09
2017-03-14T00:37:35.157Z,67.28
2017-03-14T00:38:45.920Z,67.09
2017-03-14T00:39:56.294Z,67.47
2017-03-14T00:41:07.068Z,67.38
2017-03-14T00:42:17.019Z,67.47
2017-03-14T00:43:27.379Z,67.19
2017-03-14T00:44:38.150Z,67.19
2017-03-14T00:45:48.923Z,67.09
2017-03-14T00:46:59.681Z,67.19
2017-03-14T00:48:10.070Z,67.19
2017-03-14T00:49:20.835Z,67.19
2017-03-14T00:50:31.637Z,67.19
2017-03-14T00:51:42.408Z,67.28
2017-03-14T00:52:53.167Z,67.28
2017-03-14T00:54:03.547Z,67.19
2017-03-14T00:55:13.920Z,67.38
2017-03-14T00:56:24.665Z,67.28
2017-03-14T00:57:35.440Z,67.19
2017-03-14T00:58:46.213Z,67.28
2017-03-14T00:59:57.005Z,67.28
2017-03-14T01:01:07.774Z,67.09
2017-03-14T01:02:18.536Z,67.09
2017-03-14T01:03:28.495Z,67.19
2017-03-14T01:04:38.909Z,67.19
2017-03-14T01:05:49.262Z,67.19
2017-03-14T01:07:00.037Z,67.19
2017-03-14T01:08:10.806Z,67.28
2017-03-14T01:09:21.589Z,67.38
2017-03-14T01:10:32.367Z,67
2017-03-14T01:11:43.140Z,67
2017-03-14T01:12:53.911Z,67.38
2017-03-14T01:14:04.653Z,67.19
2017-03-14T01:15:15.011Z,67.19
2017-03-14T01:16:25.788Z,67.19
2017-03-14T01:17:36.168Z,67.09
2017-03-14T01:18:46.946Z,67.19
2017-03-14T01:19:57.324Z,67.19
2017-03-14T01:21:08.118Z,67.28
2017-03-14T01:22:18.863Z,67.19
2017-03-14T01:23:29.618Z,67.38
2017-03-14T01:24:40.411Z,67.38
2017-03-14T01:25:51.181Z,67.38
2017-03-14T01:27:01.572Z,67.19
2017-03-14T01:28:11.970Z,67.19
2017-03-14T01:29:22.346Z,67.28
2017-03-14T01:30:33.103Z,67.28
2017-03-14T01:31:43.869Z,67
2017-03-14T01:32:54.659Z,67.47
2017-03-14T01:34:04.621Z,67
2017-03-14T01:35:15.388Z,67.47
2017-03-14T01:36:26.137Z,67.19
2017-03-14T01:37:36.548Z,67.47
2017-03-14T01:38:46.913Z,67.19
2017-03-14T01:39:57.704Z,67.38
2017-03-14T01:41:08.466Z,67.19
2017-03-14T01:42:18.846Z,67.47
2017-03-14T01:43:29.216Z,67.09
2017-03-14T01:44:39.992Z,67.28
2017-03-14T01:45:50.756Z,67.19
2017-03-14T01:47:01.541Z,67.38
2017-03-14T01:48:12.315Z,67.19
2017-03-14T01:49:22.689Z,67.09
2017-03-14T01:50:33.460Z,67.09
2017-03-14T01:51:44.223Z,67.28
2017-03-14T01:52:54.599Z,67.09
2017-03-14T01:54:05.375Z,67.09
2017-03-14T01:55:16.154Z,66.9
2017-03-14T01:56:26.533Z,67.25
2017-03-14T01:57:37.280Z,67.19
2017-03-14T01:58:48.045Z,67
2017-03-14T01:59:58.417Z,67.47
2017-03-14T02:01:09.182Z,66.9
2017-03-14T02:02:19.955Z,67.09
2017-03-14T02:03:30.780Z,67.28
2017-03-14T02:04:41.548Z,67.28
2017-03-14T02:05:52.296Z,67.19
2017-03-14T02:07:03.069Z,66.9
2017-03-14T02:08:13.433Z,67.57
2017-03-14T02:09:24.197Z,66.9
2017-03-14T02:10:34.561Z,67.57
2017-03-14T02:11:45.333Z,67
2017-03-14T02:12:56.100Z,67.47
2017-03-14T02:14:06.871Z,67
2017-03-14T02:15:17.640Z,67.47
2017-03-14T02:16:28.419Z,67.47
2017-03-14T02:17:39.184Z,67
2017-03-14T02:18:49.960Z,67
2017-03-14T02:20:00.715Z,66.9
2017-03-14T02:21:11.463Z,67.19
2017-03-14T02:22:22.241Z,66.9
2017-03-14T02:23:32.646Z,67.28
2017-03-14T02:24:43.401Z,67.19
2017-03-14T02:25:53.767Z,67.19
2017-03-14T02:27:04.556Z,67.38
2017-03-14T02:28:15.301Z,67.38
2017-03-14T02:29:25.677Z,67.47
2017-03-14T02:30:36.465Z,67.38
2017-03-14T02:31:47.220Z,67.19
2017-03-14T02:32:57.565Z,67.47
2017-03-14T02:34:07.137Z,67.09
2017-03-14T02:35:17.878Z,67.47
2017-03-14T02:36:28.255Z,67.19
2017-03-14T02:37:39.010Z,67.47
2017-03-14T02:38:49.790Z,67.09
2017-03-14T02:40:00.563Z,67.19
2017-03-14T02:41:11.325Z,67.09
2017-03-14T02:42:22.084Z,67.19
2017-03-14T02:43:32.844Z,67.47
2017-03-14T02:44:43.612Z,67.28
2017-03-14T02:45:54.385Z,67.28
2017-03-14T02:47:05.160Z,67.09
2017-03-14T02:48:15.914Z,67.19
2017-03-14T02:49:26.669Z,67.15
2017-03-14T02:50:37.436Z,67.38
2017-03-14T02:51:48.192Z,67.15
2017-03-14T02:52:58.985Z,67.15
2017-03-14T02:54:09.578Z,67.15
2017-03-14T02:55:19.952Z,67.25
2017-03-14T02:56:30.718Z,67.25
2017-03-14T02:57:41.508Z,67.25
2017-03-14T02:58:51.888Z,67.25
2017-03-14T03:00:02.650Z,67.15
2017-03-14T03:01:13.438Z,67.06
2017-03-14T03:32:08.551Z,66.03
2017-03-14T03:33:19.288Z,66.22
2017-03-14T03:34:29.250Z,67.27
2017-03-14T03:35:40.027Z,67.65
2017-03-14T03:36:50.775Z,68.4
2017-03-14T03:38:01.525Z,68.79
2017-03-14T03:39:12.296Z,69.17
2017-03-14T03:40:23.061Z,69.35
2017-03-14T03:41:33.816Z,69.26
2017-03-14T03:42:44.186Z,69.17
2017-03-14T03:43:54.947Z,69.48
2017-03-14T03:45:05.705Z,69.1
2017-03-14T03:46:16.464Z,69.01
2017-03-14T03:47:27.222Z,68.73
2017-03-14T03:48:37.980Z,68.73
2017-03-14T03:49:48.363Z,68.57
2017-03-14T03:50:59.139Z,68.57
2017-03-14T03:52:09.917Z,68.19
2017-03-14T03:53:20.706Z,67.9
2017-03-14T03:54:31.449Z,68.1
2017-03-14T03:55:42.205Z,67.62
2017-03-14T03:56:52.183Z,67.52
2017-03-14T03:58:02.944Z,67.85
2017-03-14T03:59:13.718Z,67.65
2017-03-14T04:00:24.496Z,67.37
2017-03-14T04:01:35.251Z,67.18
2017-03-14T04:02:46.016Z,67.27
2017-03-14T04:03:56.622Z,67.18
2017-03-14T04:05:07.388Z,67.37
2017-03-14T04:06:18.147Z,66.99
2017-03-14T04:07:28.937Z,67.27
2017-03-14T04:08:39.704Z,67.37
2017-03-14T04:09:50.472Z,67.37
2017-03-14T04:11:01.213Z,66.99
2017-03-14T04:12:11.569Z,66.8
2017-03-14T04:13:22.319Z,66.99
2017-03-14T04:14:33.106Z,66.71
2017-03-14T04:15:43.860Z,67.21
2017-03-14T04:16:54.235Z,67.21
2017-03-14T04:18:05.004Z,66.93
2017-03-14T04:19:15.756Z,67.02
2017-03-14T04:20:26.540Z,67.02
2017-03-14T04:21:37.295Z,66.93
2017-03-14T04:22:48.073Z,67.21
2017-03-14T04:23:58.817Z,67.21
2017-03-14T04:25:09.584Z,67.21
2017-03-14T04:26:20.344Z,66.46
2017-03-14T04:27:31.093Z,67.4
2017-03-14T04:28:41.473Z,67.21
2017-03-14T04:29:52.247Z,66.93
2017-03-14T04:31:03.011Z,67.02
2017-03-14T04:32:13.757Z,67.02
2017-03-14T04:33:24.520Z,66.83
2017-03-14T04:34:35.289Z,67.21
2017-03-14T04:35:46.040Z,66.87
2017-03-14T04:36:56.807Z,66.93
2017-03-14T04:38:07.586Z,67.31
2017-03-14T04:39:18.359Z,66.96
2017-03-14T04:40:29.117Z,66.96
2017-03-14T04:41:39.877Z,66.96
2017-03-14T04:42:50.257Z,67.06
2017-03-14T04:44:00.627Z,67.25
2017-03-14T04:45:11.416Z,67.06
2017-03-14T04:46:22.200Z,67.25
2017-03-14T04:47:32.957Z,67.44
2017-03-14T04:48:43.724Z,66.2
2017-03-14T04:49:54.480Z,67.06
2017-03-14T04:51:04.876Z,66.49
2017-03-14T04:52:15.257Z,67.15
2017-03-14T04:53:25.628Z,66.49
2017-03-14T04:54:36.391Z,66.77
2017-03-14T04:55:47.147Z,66.87
2017-03-14T04:56:57.920Z,66.96
2017-03-14T04:58:07.888Z,66.8
2017-03-14T04:59:18.654Z,66.61
2017-03-14T05:00:29.418Z,67.25
2017-03-14T05:01:39.795Z,67.15
2017-03-14T05:02:50.153Z,67.38
2017-03-14T05:04:00.521Z,67.25
2017-03-14T05:05:11.275Z,67.34
2017-03-14T05:06:22.053Z,67.34
2017-03-14T05:07:32.796Z,67.19
2017-03-14T05:08:43.169Z,67.38
2017-03-14T05:09:53.529Z,66.9
2017-03-14T05:11:03.520Z,66.9
2017-03-14T05:12:14.297Z,67.34
2017-03-14T05:13:25.074Z,67.53
2017-03-14T05:14:35.851Z,67.44
2017-03-14T05:15:46.219Z,67.57
2017-03-14T05:16:56.607Z,67.57
2017-03-14T05:18:07.385Z,67.34
2017-03-14T05:19:18.154Z,67.66
2017-03-14T05:20:28.899Z,67.38
2017-03-14T05:21:39.648Z,67.38
2017-03-14T05:22:50.434Z,67.38
2017-03-14T05:24:00.816Z,67.38
2017-03-14T05:25:11.590Z,67.57
2017-03-14T05:26:22.387Z,67.38
2017-03-14T05:27:33.145Z,67.57
2017-03-14T05:28:43.496Z,67.47
2017-03-14T05:29:53.859Z,67.38
2017-03-14T05:31:04.630Z,67.57
2017-03-14T05:32:15.026Z,67.38
2017-03-14T05:33:25.778Z,67.38
2017-03-14T05:34:36.566Z,67.38
2017-03-14T05:35:47.311Z,67.57
2017-03-14T05:36:57.672Z,67.38
2017-03-14T05:38:08.039Z,67.38
2017-03-14T05:39:18.394Z,67.38
2017-03-14T05:40:28.749Z,67.47
2017-03-14T05:41:39.560Z,67.41
2017-03-14T05:42:49.930Z,67.38
2017-03-14T05:43:59.920Z,67.09
2017-03-14T05:45:10.664Z,66.9
2017-03-14T05:46:21.421Z,67.5
2017-03-14T05:47:32.175Z,67.41
2017-03-14T05:48:42.943Z,67.22
2017-03-14T05:49:53.719Z,67.22
2017-03-14T05:51:04.093Z,67.41
2017-03-14T05:52:14.463Z,67.22
2017-03-14T05:53:24.819Z,67.5
2017-03-14T05:54:35.589Z,67.79
2017-03-14T05:55:46.347Z,67.32
2017-03-14T05:56:56.312Z,67.32
2017-03-14T05:58:07.070Z,67.41
2017-03-14T05:59:17.436Z,67.32
2017-03-14T06:00:28.229Z,67.35
2017-03-14T06:01:39.240Z,66.97
2017-03-14T06:02:49.207Z,67.07
2017-03-14T06:03:59.959Z,67.54
2017-03-14T06:05:10.713Z,67.16
2017-03-14T06:06:21.473Z,67.16
2017-03-14T06:07:32.248Z,67.54
2017-03-14T06:08:43.008Z,67.54
2017-03-14T06:09:53.757Z,67.63
2017-03-14T06:11:04.537Z,67.63
2017-03-14T06:12:15.309Z,67.63
2017-03-14T06:13:26.076Z,67.54
2017-03-14T06:14:36.832Z,67.35
2017-03-14T06:15:47.616Z,67.35
2017-03-14T06:16:58.379Z,67.63
2017-03-14T06:18:09.142Z,67.73
2017-03-14T06:19:19.926Z,67.44
2017-03-14T06:20:30.706Z,67.16
2017-03-14T06:21:41.481Z,67.16
2017-03-14T06:22:52.232Z,66.97
2017-03-14T06:24:03.035Z,67.47
2017-03-14T06:25:13.837Z,67.57
2017-03-14T06:26:24.214Z,67.47
2017-03-14T06:27:34.984Z,67.1
2017-03-14T06:28:45.759Z,67.19
2017-03-14T06:29:56.531Z,67.19
2017-03-14T06:31:07.309Z,67.19
2017-03-14T06:32:18.083Z,66.91
2017-03-14T06:33:28.873Z,66.81
2017-03-14T06:34:39.238Z,66.81
2017-03-14T06:35:49.987Z,67.03
2017-03-14T06:37:00.756Z,67.41
2017-03-14T06:38:11.509Z,67.32
2017-03-14T06:39:22.259Z,67.51
2017-03-14T06:40:33.050Z,67.51
2017-03-14T06:41:43.440Z,67.41
2017-03-14T06:42:54.205Z,67.61
2017-03-14T06:44:04.992Z,67.32
2017-03-14T06:45:15.754Z,67.41
2017-03-14T06:46:26.569Z,67.22
2017-03-14T06:47:37.363Z,67.32
2017-03-14T06:48:48.147Z,67.41
2017-03-14T06:49:59.146Z,67.03
2017-03-14T06:51:09.546Z,67.26
2017-03-14T06:52:20.334Z,67.03
2017-03-14T06:53:30.681Z,67.16
2017-03-14T06:54:41.494Z,67.03
2017-03-14T06:55:52.265Z,67.07
2017-03-14T06:57:03.035Z,67.26
2017-03-14T06:58:13.437Z,67.55
2017-03-14T06:59:24.207Z,67.55
2017-03-14T07:00:34.976Z,67.74
2017-03-14T07:01:45.736Z,67.45
2017-03-14T07:02:56.498Z,67.26
2017-03-14T07:04:07.261Z,67.64
2017-03-14T07:05:18.028Z,67.45
2017-03-14T07:06:28.023Z,67.64
2017-03-14T07:07:38.791Z,67.07
2017-03-14T07:08:49.597Z,66.97
2017-03-14T07:10:00.355Z,67.07
2017-03-14T07:11:11.133Z,66.59
2017-03-14T07:12:21.888Z,67.48
2017-03-14T07:13:32.670Z,67.68
2017-03-14T07:14:43.427Z,67.1
2017-03-14T07:15:53.788Z,66.82
2017-03-14T07:17:04.554Z,67.1
2017-03-14T07:18:15.327Z,67
2017-03-14T07:19:25.683Z,67.1
2017-03-14T07:20:36.448Z,67
2017-03-14T07:21:47.229Z,67
2017-03-14T07:22:57.604Z,67.1
2017-03-14T07:24:08.362Z,66.85
2017-03-14T07:25:19.129Z,66.66
2017-03-14T07:26:29.895Z,67.14
2017-03-14T07:27:40.657Z,66.66
2017-03-14T07:28:51.445Z,66.94
2017-03-14T07:30:02.210Z,67.14
2017-03-14T07:31:12.612Z,67.17
2017-03-14T07:32:23.388Z,67.07
2017-03-14T07:33:33.789Z,67.07
2017-03-14T07:34:44.554Z,66.69
2017-03-14T07:35:55.327Z,66.53
2017-03-14T07:37:06.080Z,66.53
2017-03-14T07:38:16.853Z,66.25
2017-03-14T07:39:27.633Z,66.25
2017-03-14T07:40:38.407Z,66.72
2017-03-14T07:41:49.191Z,66.63
2017-03-14T07:42:59.975Z,66.53
2017-03-14T07:44:10.778Z,67.01
2017-03-14T07:45:21.553Z,66.92
2017-03-14T07:46:32.316Z,66.66
2017-03-14T07:47:42.690Z,66.56
2017-03-14T07:48:53.459Z,66.85
2017-03-14T07:50:04.242Z,66.85
2017-03-14T07:51:15.006Z,66.85
2017-03-14T07:52:25.790Z,66.95
2017-03-14T07:53:36.585Z,66.66
2017-03-14T07:54:46.550Z,66.56
2017-03-14T07:55:57.312Z,66.56
2017-03-14T07:57:08.071Z,66.66
2017-03-14T07:58:18.845Z,66.6
2017-03-14T07:59:29.624Z,66.6
2017-03-14T08:00:40.395Z,66.99
2017-03-14T08:01:51.170Z,66.89
2017-03-14T08:03:01.928Z,66.6
2017-03-14T08:04:12.309Z,67.18
2017-03-14T08:05:23.110Z,67.08
2017-03-14T08:06:33.086Z,67.18
2017-03-14T08:07:43.855Z,67.18
2017-03-14T08:08:54.892Z,66.89
2017-03-14T08:10:05.666Z,67.08
2017-03-14T08:11:16.428Z,67.36
2017-03-14T08:12:27.211Z,67.27
2017-03-14T08:13:37.608Z,67.08
2017-03-14T08:14:47.994Z,66.89
2017-03-14T08:15:58.789Z,67.18
2017-03-14T08:17:09.147Z,67.18
2017-03-14T08:18:19.525Z,66.99
2017-03-14T08:19:30.276Z,66.83
2017-03-14T08:20:41.033Z,67.02
2017-03-14T08:21:51.412Z,67.21
2017-03-14T08:23:01.779Z,66.44
2017-03-14T08:24:12.142Z,66.54
2017-03-14T08:25:22.523Z,66.09
2017-03-14T08:26:33.310Z,66.09
2017-03-14T08:27:43.680Z,66
2017-03-14T08:28:54.450Z,66.57
2017-03-14T08:30:05.234Z,66.03
2017-03-14T08:31:16.003Z,66.22
2017-03-14T08:32:26.367Z,66.03
2017-03-14T08:33:36.734Z,66.32
2017-03-14T08:34:47.488Z,65.45
2017-03-14T08:35:58.277Z,65.58
2017-03-14T08:37:09.031Z,65.49
2017-03-14T08:38:19.822Z,65.71
2017-03-14T08:39:30.186Z,65.39
2017-03-14T08:40:40.977Z,65.42
2017-03-14T08:41:51.752Z,65.62
2017-03-14T08:43:02.566Z,65.71
2017-03-14T08:44:13.340Z,65.52
2017-03-14T08:45:24.096Z,65.52
2017-03-14T08:46:34.853Z,65.42
2017-03-14T08:47:45.256Z,65.62
2017-03-14T08:48:55.624Z,65.52
2017-03-14T08:50:05.978Z,65.36
2017-03-14T08:51:16.753Z,65.36
2017-03-14T08:52:27.524Z,65.75
2017-03-14T08:53:37.942Z,65.26
2017-03-14T08:54:48.313Z,65.36
2017-03-14T08:55:59.111Z,65.46
2017-03-14T08:57:09.860Z,65.75
2017-03-14T08:58:20.669Z,65.46
2017-03-14T08:59:31.444Z,65.78
2017-03-14T09:00:42.225Z,65.68
2017-03-14T09:01:52.999Z,65.78
2017-03-14T09:03:03.755Z,65.39
2017-03-14T09:04:14.524Z,65.68
2017-03-14T09:05:25.298Z,65.88
2017-03-14T09:06:35.675Z,65.59
2017-03-14T09:07:46.081Z,65.59
2017-03-14T09:08:56.447Z,65.59
2017-03-14T09:10:07.213Z,65.88
2017-03-14T09:11:17.998Z,65.68
2017-03-14T09:12:28.375Z,65.68
2017-03-14T09:13:38.353Z,65.78
2017-03-14T09:14:48.714Z,65.49
2017-03-14T09:15:59.481Z,65.59
2017-03-14T09:17:10.252Z,65.78
2017-03-14T09:18:21.009Z,65.88
2017-03-14T09:19:31.370Z,65.68
2017-03-14T09:20:42.159Z,66.16
2017-03-14T09:21:52.565Z,66.26
2017-03-14T09:23:03.324Z,66.26
2017-03-14T09:24:13.688Z,66.64
2017-03-14T09:25:24.458Z,66.55
2017-03-14T09:26:34.781Z,66.45
2017-03-14T09:27:45.522Z,66.61
2017-03-14T09:28:56.287Z,66.83
2017-03-14T09:30:07.098Z,66.74
2017-03-14T09:31:17.469Z,66.51
2017-03-14T09:32:28.450Z,66.71
2017-03-14T09:33:38.845Z,67.38
2017-03-14T09:34:49.216Z,67.44
2017-03-14T09:35:59.982Z,67.34
2017-03-14T09:37:11.577Z,67.15
2017-03-14T09:38:22.516Z,67.05
2017-03-14T09:39:33.315Z,66.58
2017-03-14T09:40:44.092Z,66.48
2017-03-14T09:41:54.886Z,66.51
2017-03-14T09:43:05.712Z,66.77
2017-03-14T09:44:16.137Z,66.89
2017-03-14T09:45:26.520Z,66.77
2017-03-14T09:46:37.605Z,67.34
2017-03-14T09:47:48.005Z,67.44
2017-03-14T09:48:58.803Z,67.44
2017-03-14T09:50:09.201Z,67.5
2017-03-14T09:51:20.975Z,67.41
2017-03-14T09:52:35.198Z,67.79
2017-03-14T09:53:46.126Z,67.66
2017-03-14T09:54:56.915Z,67.76
2017-03-14T09:56:07.679Z,67.56
2017-03-14T09:57:18.473Z,68.23
2017-03-14T09:58:29.262Z,67.66
2017-03-14T09:59:39.652Z,67.66
2017-03-14T10:00:50.010Z,67.08
2017-03-14T10:02:00.795Z,67.18
2017-03-14T10:03:11.555Z,67.21
2017-03-14T10:04:21.945Z,66.74
2017-03-14T10:05:32.337Z,66.54
2017-03-14T10:06:43.129Z,66.09
2017-03-14T10:07:53.493Z,65.91
2017-03-14T10:09:04.233Z,65.62
2017-03-14T10:10:14.977Z,65.65
2017-03-14T10:11:25.734Z,66.32
2017-03-14T10:12:36.560Z,65.55
2017-03-14T10:13:47.300Z,65.65
2017-03-14T10:14:58.047Z,65.68
2017-03-14T10:16:08.805Z,65.68
2017-03-14T10:17:19.567Z,65.68
2017-03-14T10:18:30.330Z,65.68
2017-03-14T10:19:41.092Z,65.68
2017-03-14T10:20:51.845Z,65.49
2017-03-14T10:22:02.600Z,65.72
2017-03-14T10:23:13.725Z,65.81
2017-03-14T10:24:24.062Z,65.91
2017-03-14T10:25:34.416Z,65.72
2017-03-14T10:26:44.753Z,65.81
2017-03-14T10:27:55.094Z,65.72
2017-03-14T10:29:05.456Z,65.62
2017-03-14T10:30:15.812Z,65.75
2017-03-14T10:31:25.860Z,65.94
2017-03-14T10:32:36.212Z,65.94
2017-03-14T10:33:46.559Z,65.65
2017-03-14T10:34:56.909Z,65.75
2017-03-14T10:36:07.265Z,65.3
2017-03-14T10:37:17.628Z,65.4
2017-03-14T10:38:27.978Z,65.59
2017-03-14T10:39:38.428Z,65.59
2017-03-14T10:40:48.844Z,65.97
2017-03-14T10:41:59.186Z,65.91
2017-03-14T10:43:09.539Z,65.91
2017-03-14T10:44:19.886Z,65.88
2017-03-14T10:45:30.222Z,66.93
2017-03-14T10:46:40.552Z,66.42
2017-03-14T10:47:50.897Z,66.33
2017-03-14T10:49:00.967Z,67
2017-03-14T10:50:11.378Z,66.52
2017-03-14T10:51:21.723Z,65.97
2017-03-14T10:52:32.078Z,66.46
2017-03-14T10:53:42.406Z,66.36
2017-03-14T10:54:52.750Z,66.07
2017-03-14T10:56:03.090Z,65.69
2017-03-14T10:57:13.434Z,65.81
2017-03-14T10:58:23.461Z,65.69
2017-03-14T10:59:33.793Z,66.1
2017-03-14T11:00:44.137Z,65.53
2017-03-14T11:01:54.482Z,65.43
2017-03-14T11:03:04.532Z,65.17
2017-03-14T11:04:14.866Z,65.56
2017-03-14T11:05:25.203Z,65.17
2017-03-14T11:06:35.240Z,64.98
2017-03-14T11:07:45.569Z,64.79
2017-03-14T11:08:55.929Z,65.17
2017-03-14T11:10:06.268Z,65.88
2017-03-14T11:11:16.301Z,66.42
2017-03-14T11:12:26.669Z,66.39
2017-03-14T11:13:37.160Z,65.84
2017-03-14T11:14:46.904Z,66.61
2017-03-14T11:15:56.939Z,65.94
2017-03-14T11:17:06.656Z,66.77
2017-03-14T11:18:16.997Z,67.32
2017-03-14T11:19:27.330Z,66.84
2017-03-14T11:20:37.661Z,66.77
2017-03-14T11:21:47.684Z,66
2017-03-14T11:22:58.026Z,65.94
2017-03-14T11:24:08.052Z,65.56
2017-03-14T11:25:18.416Z,64.82
2017-03-14T11:26:28.765Z,64.63
2017-03-14T11:27:39.105Z,64.86
2017-03-14T11:28:49.448Z,64.47
2017-03-14T11:29:59.798Z,64.69
2017-03-14T11:31:09.836Z,65.81
2017-03-14T11:32:20.172Z,65.97
2017-03-14T11:33:30.213Z,65.59
2017-03-14T11:34:40.547Z,65.43
2017-03-14T11:35:50.587Z,64.66
2017-03-14T11:37:00.928Z,65.05
2017-03-14T11:38:11.292Z,64.31
2017-03-14T11:39:21.326Z,64.05
2017-03-14T11:40:31.678Z,64.25
2017-03-14T11:41:41.697Z,63.47
2017-03-14T11:42:51.443Z,63.5
2017-03-14T11:44:01.790Z,63.5
2017-03-14T11:45:11.831Z,63.82
2017-03-14T11:46:22.156Z,63.44
2017-03-14T11:47:32.485Z,63.67
2017-03-14T11:48:42.858Z,64.02
2017-03-14T11:49:53.193Z,64.98
2017-03-14T11:51:03.213Z,65.33
2017-03-14T11:52:13.542Z,66.81
2017-03-14T11:53:23.558Z,67
2017-03-14T11:54:33.889Z,66.68
2017-03-14T11:55:43.605Z,67.07
2017-03-14T11:56:53.662Z,66.65
2017-03-14T11:58:03.702Z,65.81
2017-03-14T11:59:14.042Z,64.53
2017-03-14T12:00:24.082Z,64.82
2017-03-14T12:01:34.428Z,64.66
2017-03-14T12:02:44.774Z,64.28
2017-03-14T12:03:54.807Z,63.73
2017-03-14T12:05:05.150Z,63.92
2017-03-14T12:06:15.492Z,63.82
2017-03-14T12:07:25.830Z,64.31
2017-03-14T12:08:36.165Z,64.89
2017-03-14T12:09:46.512Z,65.14
2017-03-14T12:10:56.873Z,65.33
2017-03-14T12:12:07.201Z,65.72
2017-03-14T12:13:17.237Z,65.33
2017-03-14T12:14:27.605Z,65.33
2017-03-14T12:15:37.957Z,65.69
2017-03-14T12:16:47.982Z,64.86
2017-03-14T12:17:58.328Z,64.47
2017-03-14T12:19:08.685Z,64.86
2017-03-14T12:20:19.031Z,64.56
2017-03-14T12:21:29.365Z,65.63
2017-03-14T12:22:39.711Z,65.88
2017-03-14T12:23:50.063Z,65.3
2017-03-14T12:25:00.119Z,65.5
2017-03-14T12:26:10.450Z,65.2
2017-03-14T12:27:20.789Z,65.4
2017-03-14T12:28:31.126Z,66.07
2017-03-14T12:29:41.170Z,66.14
2017-03-14T12:30:51.528Z,66.71
2017-03-14T12:32:01.910Z,66.58
2017-03-14T12:33:11.990Z,66.68
2017-03-14T12:34:22.341Z,67.13
2017-03-14T12:35:32.687Z,67.03
2017-03-14T12:36:43.038Z,66.07
2017-03-14T12:37:53.558Z,66.01
2017-03-14T12:39:03.604Z,65.72
2017-03-14T12:40:13.635Z,66.3
2017-03-14T12:41:23.678Z,66.65
2017-03-14T12:42:34.035Z,67.03
2017-03-14T12:43:44.089Z,66.46
2017-03-14T12:44:54.428Z,66.36
2017-03-14T12:46:04.160Z,66.65
2017-03-14T12:47:14.189Z,66.84
2017-03-14T12:48:24.554Z,66.74
2017-03-14T12:49:34.610Z,66.46
2017-03-14T12:50:44.959Z,66.65
2017-03-14T12:51:55.298Z,66.91
2017-03-14T12:53:05.646Z,66.61
2017-03-14T12:54:16.005Z,65.78
2017-03-14T12:55:26.393Z,66.74
2017-03-14T12:56:36.106Z,65.97
2017-03-14T12:57:46.459Z,66.71
2017-03-14T12:58:56.830Z,65.69
2017-03-14T13:00:06.888Z,65.11
2017-03-14T13:01:17.221Z,64.37
2017-03-14T13:02:27.551Z,64.66
2017-03-14T13:03:37.575Z,65.63
2017-03-14T13:04:47.932Z,65.33
2017-03-14T13:05:58.260Z,65.24
2017-03-14T13:07:08.281Z,65.24
2017-03-14T13:08:18.300Z,65.72
2017-03-14T13:09:28.628Z,65.24
2017-03-14T13:10:38.653Z,65.43
2017-03-14T13:11:48.702Z,65.72
2017-03-14T13:12:59.037Z,66.01
2017-03-14T13:14:09.366Z,65.81
2017-03-14T13:15:19.412Z,65.59
2017-03-14T13:16:29.750Z,65.88
2017-03-14T13:17:39.782Z,65.88
2017-03-14T13:18:49.497Z,65.88
2017-03-14T13:19:59.830Z,65.69
2017-03-14T13:21:10.175Z,65.88
2017-03-14T13:22:20.523Z,65.97
2017-03-14T13:23:30.879Z,66.07
2017-03-14T13:24:41.217Z,65.88
2017-03-14T13:25:51.551Z,65.59
2017-03-14T13:27:01.925Z,65.59
2017-03-14T13:28:12.278Z,66.74
2017-03-14T13:29:22.616Z,67
2017-03-14T13:30:32.669Z,67.19
2017-03-14T13:31:43.016Z,66.77
2017-03-14T13:32:53.353Z,66.97
2017-03-14T13:34:03.385Z,66.93
2017-03-14T13:35:13.740Z,66.55
2017-03-14T13:36:23.783Z,66.74
2017-03-14T13:37:34.177Z,66.64
2017-03-14T13:38:44.527Z,66.93
2017-03-14T13:39:54.874Z,66.64
2017-03-14T13:41:04.904Z,67.13
2017-03-14T13:42:15.224Z,66.93
2017-03-14T13:43:25.569Z,67.47
2017-03-14T13:44:35.907Z,67.29
2017-03-14T13:45:46.233Z,67.25
2017-03-14T13:46:55.954Z,67.83
2017-03-14T13:48:06.291Z,67.35
2017-03-14T13:49:16.011Z,67.54
2017-03-14T13:50:26.362Z,68.02
2017-03-14T13:51:36.716Z,67.02
2017-03-14T13:52:47.058Z,67.54
2017-03-14T13:53:56.766Z,67.41
2017-03-14T13:55:06.808Z,68.08
2017-03-14T13:56:17.162Z,67.79
2017-03-14T13:57:27.202Z,67.32
2017-03-14T13:58:37.560Z,67.28
2017-03-14T13:59:47.277Z,67.32
2017-03-14T14:00:57.615Z,67.85
2017-03-14T14:02:07.626Z,67.09
2017-03-14T14:03:17.673Z,67.47
2017-03-14T14:04:27.728Z,68.05
2017-03-14T14:05:38.098Z,67.18
2017-03-14T14:06:48.459Z,67.66
2017-03-14T14:07:58.799Z,66.64
2017-03-14T14:09:08.815Z,66.64
2017-03-14T14:10:19.154Z,66.29
2017-03-14T14:11:29.504Z,66.39
2017-03-14T14:12:39.852Z,65.91
2017-03-14T14:13:50.213Z,65.56
2017-03-14T14:15:00.245Z,65.17
2017-03-14T14:16:10.571Z,65.46
2017-03-14T14:17:20.928Z,65.08
2017-03-14T14:18:30.955Z,65.2
2017-03-14T14:19:41.305Z,65.4
2017-03-14T14:20:51.653Z,65.88
2017-03-14T14:22:02.024Z,65.69
2017-03-14T14:23:12.364Z,65.78
2017-03-14T14:24:22.737Z,65.59
2017-03-14T14:25:32.755Z,65.59
2017-03-14T14:26:42.763Z,65.59
2017-03-14T14:27:53.103Z,65.88
2017-03-14T14:29:03.427Z,65.49
2017-03-14T14:30:13.770Z,65.59
2017-03-14T14:31:23.794Z,65.49
2017-03-14T14:32:34.143Z,65.88
2017-03-14T14:33:44.488Z,65.59
2017-03-14T14:34:54.844Z,64.85
2017-03-14T14:36:04.880Z,64.69
2017-03-14T14:37:14.910Z,64.69
2017-03-14T14:38:25.012Z,64.43
2017-03-14T14:39:35.096Z,64.92
2017-03-14T14:40:45.494Z,64.63
2017-03-14T14:41:55.862Z,65.69
2017-03-14T14:43:06.250Z,65.46
2017-03-14T14:44:16.666Z,65.66
2017-03-14T14:45:27.042Z,65.46
2017-03-14T14:46:37.468Z,65.56
2017-03-14T14:47:47.942Z,65.56
2017-03-14T14:48:58.370Z,65.75
2017-03-14T14:50:09.003Z,65.75
2017-03-14T14:51:19.378Z,66.71
2017-03-14T14:52:29.497Z,66.33
2017-03-14T14:53:39.683Z,66
2017-03-14T14:54:50.270Z,65.94
2017-03-14T14:56:00.853Z,66.52
2017-03-14T14:57:10.894Z,65.84
2017-03-14T14:58:21.261Z,65.84
2017-03-14T14:59:31.659Z,66.33
2017-03-14T15:00:42.160Z,66.68
2017-03-14T15:01:52.715Z,66.87
2017-03-14T15:03:03.218Z,67.03
2017-03-14T15:04:13.620Z,66.93
2017-03-14T15:05:23.987Z,66.93
2017-03-14T15:06:34.420Z,67
2017-03-14T15:07:44.810Z,66.33
2017-03-14T15:08:54.986Z,66.8
2017-03-14T15:10:05.455Z,66.8
2017-03-14T15:11:15.956Z,66.71
2017-03-14T15:12:26.022Z,67.29
2017-03-14T15:13:36.523Z,66.61
2017-03-14T15:14:46.933Z,66.8
2017-03-14T15:15:56.845Z,66.9
2017-03-14T15:17:11.284Z,67.54
2017-03-14T15:18:24.322Z,67.63
2017-03-14T15:19:35.963Z,67.35
2017-03-14T15:20:47.322Z,67.16
2017-03-14T15:21:57.787Z,67.35
2017-03-14T15:23:08.060Z,67.35
2017-03-14T15:24:18.267Z,67.35
2017-03-14T15:25:28.694Z,67.35
2017-03-14T15:26:38.803Z,67.35
2017-03-14T15:27:48.951Z,67.41
2017-03-14T15:28:59.513Z,67.69
2017-03-14T15:30:09.905Z,67.22
2017-03-14T15:31:20.350Z,67.02
2017-03-14T15:32:30.450Z,67.41
2017-03-14T15:33:42.437Z,67.38
2017-03-14T15:34:54.859Z,67.28
2017-03-14T15:36:06.128Z,67.47
2017-03-14T15:37:17.623Z,67.38
2017-03-14T15:38:29.422Z,67.85
2017-03-14T15:39:40.789Z,67.18
2017-03-14T15:40:52.416Z,67.57
2017-03-14T15:42:04.249Z,67.82
2017-03-14T15:43:17.951Z,67.82